Hauptseite
METAR-TAF:

METAR-TAF

Flughäfen :

Polokwane International Airport

Polokwane, Südafrika

Breite: 23-50-43S, Länge: 29-27-31E, Höhe: 1242 m

Beobachtung

Neuester Wetterbericht von vor 30 Minuten, um 10:00 UTC
Wind 7 kt aus Süd/Südwest
Temperatur 15°C
Luftfeuchtigkeit 20%
Luftdruck 1021 hPa
Sichtweite 10 km oder mehr
keine Wolken unter 1500 m und keine Kumulonimbus oder Gewitterwolken

METAR: FAPP 271000Z 20007KT CAVOK 15/M08 Q1021 NOSIG

Zeit: 12:30 (10:30 UTC)

Prognose

Neuester Wetterbericht von vor 1 Stunde und 30 Minuten, um 09:00 UTC
Gültige Prognose vom 27 um 10 UTC bis 27 um 18 UTC
Wind 10 kt aus Süd
Sichtweite 10 km oder mehr
keine Wolken unter 1500 m und keine Kumulonimbus oder Gewitterwolken

TAF: FAPP 270900Z 2710/2718 18010KT CAVOK TX18/2712Z TN13/2718Z

Wetterbeobachtungen und Prognosen von mehr als 4000 Flughäfen (METAR und TAF Bericht).

Die verfügbaren Stationen werden durch gelbe und rote Markierungen auf der Karte dargestellt.

Führen Sie die Maus auf sie, um den Namen der Station zu sehen.

Darauf klicken, um die Beobachtung von Wetterbeobachtungen und Prognosen zu sehen.

Um die Karte zu ändern : klicken Sie auf den grünen Tasten mit einem schwarzen Kreuz Zum Vergrößern, auf den grünen Button mit einem Gedankenstrich zu verkleinern, oder auf die grünen Pfeile für benachbarte Karten.


METAR-TAF: